Time;durP1;ratioP1;P1;durP2;ratioP2;P2;SDS_P1;SDS_P2;PMS_P1;PMS_P2;Temp;Humidity;BMP_temperature;BMP_pressure;BME280_temperature;BME280_humidity;BME280_pressure;Samples;Min_cycle;Max_cycle;Signal;HPM_P1;HPM_P2
2021/03/20 15:15:10;;;;;;;42.22;28.30;;;;;;;9.38;62.97;100126.69;4796648;28;20421;-24
2021/03/20 15:17:36;;;;;;;;;;;;;;;9.37;63.47;100133.00;5044241;28;20417;-24
2021/03/20 15:20:04;;;;;;;35.75;25.08;;;;;;;9.36;62.16;100112.75;4871930;28;29802;-24
2021/03/20 15:22:29;;;;;;;48.70;32.88;;;;;;;9.14;64.03;100134.28;5052470;28;20119;-23
2021/03/20 15:24:55;;;;;;;37.33;26.27;;;;;;;8.97;65.62;100133.06;4972289;28;20145;-24
2021/03/20 15:27:20;;;;;;;29.02;22.70;;;;;;;8.97;63.66;100120.63;5024277;28;20163;-25
2021/03/20 15:29:46;;;;;;;29.02;22.17;;;;;;;9.07;64.21;100135.31;5024059;28;20108;-24
2021/03/20 15:32:11;;;;;;;29.85;22.63;;;;;;;8.98;64.36;100113.44;5024191;28;20167;-24
2021/03/20 15:34:37;;;;;;;32.28;22.75;;;;;;;9.10;64.17;100135.72;5024272;28;20116;-23
2021/03/20 15:37:03;;;;;;;54.80;36.85;;;;;;;9.07;64.21;100109.53;5012832;28;20037;-24
2021/03/20 15:39:29;;;;;;;57.55;39.05;;;;;;;9.15;64.78;100125.28;5004675;28;20049;-24
2021/03/20 15:41:54;;;;;;;53.90;39.13;;;;;;;9.28;64.13;100121.78;5003959;28;20038;-24
2021/03/20 15:44:20;;;;;;;47.28;37.05;;;;;;;9.21;64.42;100126.28;5003199;28;20045;-24
2021/03/20 15:46:46;;;;;;;49.50;37.95;;;;;;;9.36;64.18;100107.44;5004400;28;20057;-24
2021/03/20 15:49:11;;;;;;;49.35;35.28;;;;;;;9.02;65.82;100122.66;5019300;28;20113;-24
2021/03/20 15:51:37;;;;;;;53.45;36.50;;;;;;;8.94;65.54;100104.25;5003957;28;20117;-24
2021/03/20 15:54:02;;;;;;;54.80;36.47;;;;;;;9.13;65.82;100097.25;5003932;28;20126;-24
2021/03/20 15:56:28;;;;;;;54.33;37.80;;;;;;;9.00;64.80;100098.09;5004197;28;20117;-24
2021/03/20 15:58:53;;;;;;;101.80;69.07;;;;;;;9.12;65.04;100108.94;5004396;28;20117;-24
2021/03/20 16:01:20;;;;;;;41.17;29.83;;;;;;;9.15;64.61;100100.50;4994261;28;20781;-24
2021/03/20 16:03:46;;;;;;;35.13;26.15;;;;;;;9.10;65.02;100092.34;4948027;28;140269;-24
2021/03/20 16:06:12;;;;;;;41.42;32.15;;;;;;;9.02;65.33;100096.03;5004862;28;20033;-24
2021/03/20 16:08:42;;;;;;;51.03;38.65;;;;;;;8.93;66.84;100102.59;5012944;28;20091;-24
2021/03/20 16:11:10;;;;;;;42.63;32.45;;;;;;;8.80;66.61;100103.44;5015287;28;20068;-23
2021/03/20 16:13:41;;;;;;;57.27;39.33;;;;;;;8.74;65.55;100118.38;5011946;28;20045;-24
2021/03/20 16:16:07;;;;;;;36.65;25.40;;;;;;;8.57;66.55;100098.56;5014441;28;20092;-24
2021/03/20 16:18:35;;;;;;;37.80;26.25;;;;;;;8.68;67.66;100111.22;5027889;28;20049;-24
2021/03/20 16:21:01;;;;;;;49.45;34.05;;;;;;;8.73;67.50;100108.78;5027004;28;20120;-23
2021/03/20 16:23:27;;;;;;;57.55;36.95;;;;;;;8.53;67.68;100119.41;5035203;28;20034;-23
2021/03/20 16:25:53;;;;;;;54.95;36.60;;;;;;;8.22;69.17;100122.63;5012270;28;20034;-23
2021/03/20 16:28:21;;;;;;;55.17;36.78;;;;;;;8.25;68.51;100106.25;5009017;28;20095;-24
2021/03/20 16:30:48;;;;;;;62.63;38.25;;;;;;;8.16;69.38;100118.09;5009142;28;20037;-23
2021/03/20 16:33:16;;;;;;;52.60;37.00;;;;;;;8.48;66.97;100105.91;5008977;28;20118;-23
2021/03/20 16:35:42;;;;;;;54.30;34.90;;;;;;;8.45;66.95;100112.44;5008484;28;20064;-22
2021/03/20 16:38:08;;;;;;;52.85;37.65;;;;;;;8.34;66.35;100104.25;5008594;28;20261;-23
2021/03/20 16:40:35;;;;;;;48.67;32.00;;;;;;;8.50;67.26;100124.28;5008779;28;20119;-22
2021/03/20 16:43:01;;;;;;;48.55;34.10;;;;;;;8.61;66.68;100137.00;5025254;28;20449;-23
2021/03/20 16:45:27;;;;;;;37.58;27.70;;;;;;;8.51;66.51;100132.06;5010020;28;20056;-23
2021/03/20 16:47:53;;;;;;;33.13;23.98;;;;;;;8.48;66.26;100099.75;5009724;28;20750;-23
2021/03/20 16:50:20;;;;;;;34.42;25.05;;;;;;;8.48;66.54;100110.41;5009875;28;20079;-24
2021/03/20 16:52:46;;;;;;;34.65;26.27;;;;;;;8.33;68.16;100111.38;5007687;28;20650;-24
2021/03/20 16:55:20;;;;;;;46.63;29.80;;;;;;;8.31;67.41;100108.09;4996410;28;20045;-24
2021/03/20 16:57:46;;;;;;;83.53;43.40;;;;;;;8.28;66.72;100097.91;5000946;28;20026;-24
2021/03/20 17:00:21;;;;;;;49.95;34.00;;;;;;;8.24;67.73;100109.94;4991268;28;20127;-24
2021/03/20 17:02:46;;;;;;;67.57;42.30;;;;;;;8.26;66.38;100091.97;4762515;28;499733;-24
2021/03/20 17:05:12;;;;;;;103.25;69.30;;;;;;;8.09;67.87;100099.50;4954559;28;20511;-24
2021/03/20 17:07:37;;;;;;;56.25;38.15;;;;;;;8.12;66.99;100101.75;4989944;28;20041;-24
2021/03/20 17:10:04;;;;;;;47.28;34.65;;;;;;;7.89;67.72;100102.13;4937537;28;20367;-24
2021/03/20 17:12:29;;;;;;;51.17;35.97;;;;;;;8.13;67.59;100107.88;4989896;28;20030;-25
2021/03/20 17:14:55;;;;;;;43.97;30.45;;;;;;;7.98;68.48;100122.16;5000045;28;20054;-24
2021/03/20 17:17:20;;;;;;;35.28;23.30;;;;;;;7.76;68.65;100105.53;5008043;28;20030;-25
2021/03/20 17:19:46;;;;;;;36.90;27.75;;;;;;;7.94;67.89;100112.13;5008708;28;20038;-24
2021/03/20 17:22:11;;;;;;;64.35;46.22;;;;;;;7.79;68.72;100117.59;5005141;28;20473;-24
2021/03/20 17:24:37;;;;;;;41.85;28.95;;;;;;;7.44;70.39;100113.19;5008024;28;20966;-25
2021/03/20 17:27:02;;;;;;;32.65;21.27;;;;;;;7.61;70.30;100120.81;5004876;28;20409;-25
2021/03/20 17:29:28;;;;;;;277.15;137.88;;;;;;;7.69;68.92;100117.16;4995263;28;20665;-24
2021/03/20 17:31:54;;;;;;;46.08;29.52;;;;;;;7.75;68.74;100100.44;5006188;28;20037;-24
2021/03/20 17:34:19;;;;;;;51.05;35.42;;;;;;;7.55;68.91;100109.13;4988939;28;20033;-24
2021/03/20 17:36:45;;;;;;;39.33;27.13;;;;;;;7.48;69.89;100113.59;4988430;28;20034;-27
2021/03/20 17:39:11;;;;;;;34.17;23.15;;;;;;;7.53;69.50;100107.69;5004220;28;20038;-26
2021/03/20 17:41:36;;;;;;;31.30;21.50;;;;;;;7.55;68.84;100106.47;5001923;28;20033;-25
2021/03/20 17:44:02;;;;;;;27.95;18.65;;;;;;;7.56;68.47;100107.28;5008665;28;20029;-25
2021/03/20 17:46:27;;;;;;;43.45;27.48;;;;;;;7.53;68.69;100103.22;5008514;28;20033;-25
2021/03/20 17:48:53;;;;;;;31.58;20.10;;;;;;;7.50;69.48;100116.03;5006995;28;20075;-25
2021/03/20 17:51:19;;;;;;;23.55;16.40;;;;;;;7.48;69.03;100116.25;5008573;28;20478;-25
2021/03/20 17:53:45;;;;;;;25.45;18.10;;;;;;;7.52;69.12;100130.78;5008367;28;20033;-25
2021/03/20 17:56:11;;;;;;;27.42;18.77;;;;;;;7.47;69.26;100135.84;5008484;28;20117;-24
2021/03/20 17:58:37;;;;;;;32.70;20.80;;;;;;;7.23;70.31;100118.56;5007232;28;20494;-25
2021/03/20 18:01:05;;;;;;;35.40;23.00;;;;;;;7.13;71.01;100113.63;5008803;28;20025;-24
2021/03/20 18:03:31;;;;;;;40.28;25.58;;;;;;;7.30;71.58;100142.50;5008244;28;20034;-25
2021/03/20 18:05:57;;;;;;;42.90;25.05;;;;;;;6.96;72.49;100131.66;5008495;28;20052;-24
2021/03/20 18:08:24;;;;;;;58.17;32.70;;;;;;;7.07;72.97;100150.69;5007387;28;20032;-25
2021/03/20 18:10:51;;;;;;;370.70;185.98;;;;;;;7.37;71.52;100140.69;5007335;28;20129;-25
2021/03/20 18:13:17;;;;;;;91.43;47.90;;;;;;;6.91;72.53;100125.31;5006365;28;20053;-25
2021/03/20 18:15:43;;;;;;;213.50;122.93;;;;;;;7.35;72.07;100143.53;5007460;28;20030;-25
2021/03/20 18:18:09;;;;;;;147.82;91.35;;;;;;;7.42;71.71;100135.63;5007498;28;20018;-25
2021/03/20 18:20:34;;;;;;;65.10;47.58;;;;;;;7.52;71.86;100133.44;5007634;28;20018;-26
2021/03/20 18:23:00;;;;;;;51.80;37.75;;;;;;;7.52;71.39;100127.28;5007769;28;20395;-25
2021/03/20 18:25:26;;;;;;;46.08;30.98;;;;;;;7.33;71.74;100124.34;5006382;28;20068;-24
2021/03/20 18:27:52;;;;;;;81.15;62.97;;;;;;;7.47;71.93;100135.03;5007403;28;20465;-25
2021/03/20 18:30:21;;;;;;;60.97;38.22;;;;;;;7.32;72.16;100106.78;5008048;28;20044;-26
2021/03/20 18:32:46;;;;;;;39.67;23.98;;;;;;;7.14;72.69;100107.31;5008208;28;20052;-24
2021/03/20 18:35:12;;;;;;;46.35;28.73;;;;;;;7.12;74.02;100133.19;5023066;28;20843;-25
2021/03/20 18:37:38;;;;;;;49.88;32.03;;;;;;;7.21;73.03;100142.66;4993377;28;20495;-27
2021/03/20 18:40:05;;;;;;;46.95;30.25;;;;;;;7.49;72.04;100138.31;4987953;28;20034;-26
2021/03/20 18:42:31;;;;;;;36.00;22.70;;;;;;;7.41;72.45;100137.44;4987946;28;20034;-26
2021/03/20 18:44:57;;;;;;;42.22;27.13;;;;;;;7.42;72.49;100143.59;4987949;28;20034;-26
2021/03/20 18:47:23;;;;;;;48.25;28.15;;;;;;;7.22;72.44;100149.59;4987863;28;20027;-26
2021/03/20 18:49:48;;;;;;;50.80;27.10;;;;;;;6.93;73.92;100128.59;4986516;28;20037;-25
2021/03/20 18:52:14;;;;;;;38.15;23.50;;;;;;;6.81;73.59;100133.59;4987883;28;20033;-26
2021/03/20 18:54:39;;;;;;;38.15;23.33;;;;;;;6.71;75.24;100131.28;4987736;28;20030;-25
2021/03/20 18:57:06;;;;;;;43.95;27.35;;;;;;;6.57;75.18;100130.34;4998410;28;20570;-26
2021/03/20 18:59:31;;;;;;;37.75;24.02;;;;;;;6.55;75.28;100131.56;5005245;28;20022;-25
2021/03/20 19:01:57;;;;;;;42.20;27.08;;;;;;;6.57;74.68;100126.88;5005420;28;20741;-25
2021/03/20 19:04:22;;;;;;;36.92;22.80;;;;;;;6.74;74.70;100135.38;5004085;28;20080;-25
2021/03/20 19:06:48;;;;;;;34.45;22.52;;;;;;;6.79;75.00;100140.94;5004350;28;20041;-26
2021/03/20 19:09:14;;;;;;;42.25;28.33;;;;;;;6.59;74.94;100103.66;5004608;28;20109;-27
2021/03/20 19:11:39;;;;;;;36.25;23.38;;;;;;;6.75;75.20;100135.19;5003997;28;20083;-25
2021/03/20 19:14:05;;;;;;;46.60;28.92;;;;;;;6.71;75.33;100139.22;5006586;28;20137;-25
2021/03/20 19:16:32;;;;;;;29.70;19.00;;;;;;;6.89;74.51;100140.59;5006071;28;20041;-25
2021/03/20 19:18:58;;;;;;;34.10;22.70;;;;;;;6.74;75.22;100130.06;5007849;28;20033;-24
2021/03/20 19:21:24;;;;;;;28.58;20.00;;;;;;;6.51;76.98;100132.94;5005849;28;20731;-25
2021/03/20 19:23:49;;;;;;;32.90;21.48;;;;;;;6.43;76.33;100121.44;5003877;28;20035;-26
2021/03/20 19:26:15;;;;;;;32.30;20.75;;;;;;;6.37;76.04;100122.22;5006786;28;20490;-26
2021/03/20 19:28:44;;;;;;;38.17;23.63;;;;;;;6.55;75.68;100134.19;5006708;28;20069;-25
2021/03/20 19:31:11;;;;;;;42.00;25.05;;;;;;;6.70;75.24;100142.91;5005354;28;20410;-25
2021/03/20 19:33:37;;;;;;;44.58;25.70;;;;;;;6.69;75.05;100143.91;5004398;28;20029;-25
2021/03/20 19:36:04;;;;;;;39.08;25.23;;;;;;;6.52;75.67;100145.16;5003004;28;20686;-24
2021/03/20 19:38:31;;;;;;;31.40;19.58;;;;;;;6.32;76.10;100148.47;5004885;28;20026;-24
2021/03/20 19:40:56;;;;;;;33.22;20.17;;;;;;;6.08;75.73;100164.72;5004999;28;20760;-25
2021/03/20 19:43:22;;;;;;;39.92;25.25;;;;;;;6.08;75.97;100162.06;5006207;28;20104;-25
2021/03/20 19:45:47;;;;;;;29.38;18.70;;;;;;;6.12;75.91;100168.63;5006310;28;20058;-25
2021/03/20 19:48:15;;;;;;;30.38;18.67;;;;;;;6.21;75.72;100155.09;5007180;28;20053;-25
2021/03/20 19:51:02;;;;;;;31.48;21.48;;;;;;;6.44;75.11;100156.72;5007093;28;20048;-26
2021/03/20 19:53:29;;;;;;;45.90;40.50;;;;;;;6.43;75.34;100153.25;5006817;28;20409;-26
2021/03/20 19:55:55;;;;;;;37.38;30.45;;;;;;;6.53;74.67;100155.59;5006683;28;20117;-26
2021/03/20 19:58:21;;;;;;;30.50;19.35;;;;;;;6.29;75.27;100132.13;5005719;28;20117;-25
2021/03/20 20:00:47;;;;;;;31.13;21.90;;;;;;;6.12;75.13;100129.72;5008604;28;20030;-25
2021/03/20 20:03:13;;;;;;;33.17;24.33;;;;;;;6.07;75.46;100144.53;5009467;28;20034;-26
2021/03/20 20:05:38;;;;;;;37.20;24.35;;;;;;;6.02;74.94;100145.91;5025734;28;20040;-25
2021/03/20 20:08:05;;;;;;;36.75;25.02;;;;;;;5.90;76.06;100147.38;5010481;28;20486;-25
2021/03/20 20:10:31;;;;;;;41.53;27.13;;;;;;;5.89;76.29;100153.69;5010464;28;20559;-26
2021/03/20 20:12:57;;;;;;;40.08;22.67;;;;;;;5.80;76.73;100144.19;5010082;28;20037;-26
2021/03/20 20:15:22;;;;;;;26.63;17.90;;;;;;;5.79;76.31;100150.50;5010480;28;20030;-26
2021/03/20 20:17:48;;;;;;;27.70;18.25;;;;;;;5.54;76.34;100150.00;5010071;28;20029;-26
2021/03/20 20:20:15;;;;;;;30.25;19.50;;;;;;;5.40;76.15;100130.47;5009012;28;20030;-24
2021/03/20 20:22:41;;;;;;;27.83;20.48;;;;;;;5.01;76.01;100128.94;5009183;28;20453;-25
2021/03/20 20:25:07;;;;;;;31.85;23.00;;;;;;;5.15;76.18;100143.97;5010285;28;20083;-25
2021/03/20 20:27:35;;;;;;;38.15;25.58;;;;;;;5.16;76.05;100145.59;5010383;28;20030;-25
2021/03/20 20:30:01;;;;;;;53.65;27.02;;;;;;;4.99;76.31;100149.44;5010269;28;20760;-25
2021/03/20 20:32:27;;;;;;;27.27;17.67;;;;;;;4.93;76.58;100152.78;5009032;28;20830;-25
2021/03/20 20:34:52;;;;;;;31.58;19.05;;;;;;;5.00;76.35;100149.22;5008806;28;20033;-25
2021/03/20 20:37:18;;;;;;;25.33;16.52;;;;;;;4.80;76.84;100133.09;5010020;28;20744;-25
2021/03/20 20:39:44;;;;;;;34.50;17.85;;;;;;;4.69;76.92;100141.44;5008453;28;20026;-26
2021/03/20 20:42:09;;;;;;;28.63;16.85;;;;;;;4.88;76.62;100155.13;5009979;28;20092;-26
2021/03/20 20:44:35;;;;;;;28.75;16.85;;;;;;;4.80;77.33;100164.81;5010096;28;20030;-25
2021/03/20 20:47:07;;;;;;;25.15;15.52;;;;;;;4.88;76.79;100161.25;4986574;28;20037;-25
2021/03/20 20:49:32;;;;;;;30.83;20.73;;;;;;;5.12;76.46;100180.53;4994073;28;20026;-25
2021/03/20 20:51:58;;;;;;;29.80;20.67;;;;;;;5.00;75.96;100162.44;4990116;28;20041;-25
2021/03/20 20:54:24;;;;;;;31.23;23.27;;;;;;;5.08;76.24;100172.13;4990048;28;20057;-25
2021/03/20 20:56:51;;;;;;;28.02;20.58;;;;;;;4.87;76.58;100148.22;4990065;28;20038;-25
2021/03/20 20:59:17;;;;;;;27.08;19.13;;;;;;;4.99;75.59;100157.38;4990034;28;20037;-25
2021/03/20 21:01:43;;;;;;;34.35;19.85;;;;;;;5.12;75.94;100176.06;4989981;28;20057;-25
2021/03/20 21:04:08;;;;;;;31.88;25.08;;;;;;;5.11;76.42;100182.34;4988700;28;20026;-25
2021/03/20 21:06:34;;;;;;;31.13;24.20;;;;;;;5.15;75.34;100182.78;4993599;28;20038;-24
2021/03/20 21:09:00;;;;;;;31.83;22.45;;;;;;;5.27;75.28;100169.94;4994826;28;20498;-24
2021/03/20 21:11:26;;;;;;;27.13;18.33;;;;;;;5.34;74.95;100181.47;4999183;28;20033;-25
2021/03/20 21:13:52;;;;;;;31.15;22.45;;;;;;;5.26;75.54;100177.06;4992436;28;20058;-25
2021/03/20 21:16:17;;;;;;;30.23;21.45;;;;;;;5.22;75.91;100163.38;4996485;28;20057;-24
2021/03/20 21:18:43;;;;;;;25.75;16.65;;;;;;;5.20;76.18;100165.38;4997874;28;20030;-29
2021/03/20 21:21:09;;;;;;;26.65;16.70;;;;;;;5.24;75.73;100161.38;5001285;28;20033;-25
2021/03/20 21:23:34;;;;;;;27.95;17.70;;;;;;;5.09;76.30;100178.22;5009008;28;20030;-23
2021/03/20 21:26:00;;;;;;;25.05;15.85;;;;;;;5.00;77.05;100175.66;5009309;28;20534;-25
2021/03/20 21:28:30;;;;;;;24.48;14.55;;;;;;;5.05;76.90;100172.50;5009025;28;20033;-26
2021/03/20 21:30:57;;;;;;;25.83;16.65;;;;;;;4.96;77.03;100173.56;5003266;28;20030;-24
2021/03/20 21:33:22;;;;;;;31.98;19.55;;;;;;;4.71;78.05;100139.44;5000034;28;20041;-24
2021/03/20 21:35:48;;;;;;;27.90;16.85;;;;;;;4.85;78.25;100160.78;5002860;28;20788;-25
2021/03/20 21:38:13;;;;;;;25.58;15.52;;;;;;;4.87;78.31;100151.69;5007037;28;20148;-25
2021/03/20 21:40:39;;;;;;;31.77;18.25;;;;;;;4.99;77.61;100154.72;4989365;28;20030;-25
2021/03/20 21:43:05;;;;;;;25.75;15.27;;;;;;;4.69;78.39;100125.59;4989296;28;20058;-25
2021/03/20 21:45:30;;;;;;;31.40;18.63;;;;;;;4.68;78.86;100123.97;4989372;28;20481;-25
2021/03/20 21:47:56;;;;;;;32.83;18.60;;;;;;;4.90;78.75;100153.94;4988785;28;20026;-25
2021/03/20 21:50:24;;;;;;;33.60;19.35;;;;;;;4.77;79.01;100135.25;4989000;28;20049;-25
2021/03/20 21:52:50;;;;;;;39.38;22.83;;;;;;;4.91;78.89;100155.59;4989133;28;20038;-25
2021/03/20 21:55:19;;;;;;;29.90;16.70;;;;;;;4.89;78.52;100144.41;4990424;28;20069;-24
2021/03/20 21:57:46;;;;;;;30.23;18.23;;;;;;;4.74;78.74;100144.38;5008456;28;20116;-25
2021/03/20 22:01:43;;;;;;;30.13;17.60;;;;;;;4.68;79.94;100149.53;4878054;27;7887894;-25
2021/03/20 22:04:09;;;;;;;30.75;17.30;;;;;;;4.73;80.05;100148.00;5106768;28;20911;-22
2021/03/20 22:06:35;;;;;;;27.20;16.00;;;;;;;4.68;79.62;100125.75;5105789;28;20805;-24
2021/03/20 22:09:00;;;;;;;31.35;17.25;;;;;;;4.85;79.44;100144.94;5104814;28;20058;-24
2021/03/20 22:11:27;;;;;;;29.92;17.95;;;;;;;4.90;79.47;100132.81;5104222;28;20589;-25
2021/03/20 22:13:53;;;;;;;28.27;16.77;;;;;;;4.76;79.85;100126.53;5105579;28;20032;-24
2021/03/20 22:16:18;;;;;;;30.63;18.02;;;;;;;4.82;80.04;100128.44;5106014;28;20032;-24
2021/03/20 22:18:44;;;;;;;34.22;20.38;;;;;;;4.96;79.57;100133.91;5105516;28;20456;-24
2021/03/20 22:21:10;;;;;;;29.10;17.90;;;;;;;4.76;79.58;100125.69;5105678;28;20436;-24
2021/03/20 22:23:35;;;;;;;31.83;20.13;;;;;;;4.81;80.08;100124.16;5105371;28;20157;-24
2021/03/20 22:26:01;;;;;;;29.77;19.33;;;;;;;4.89;79.67;100133.00;5105824;28;20028;-24
2021/03/20 22:28:31;;;;;;;28.05;16.98;;;;;;;4.93;78.91;100126.38;5105314;28;20407;-24
2021/03/20 22:31:02;;;;;;;30.13;17.38;;;;;;;4.93;79.32;100131.66;5105429;28;20509;-24
2021/03/20 22:33:28;;;;;;;25.33;15.50;;;;;;;4.62;79.57;100108.81;5105086;28;20111;-24
2021/03/20 22:35:53;;;;;;;31.58;18.27;;;;;;;4.73;79.69;100126.88;5087069;28;20131;-24
2021/03/20 22:38:19;;;;;;;28.58;16.42;;;;;;;4.63;80.27;100136.88;5105235;28;20507;-24
2021/03/20 22:40:44;;;;;;;26.90;16.60;;;;;;;4.59;79.91;100135.59;5105026;28;20589;-24
2021/03/20 22:43:10;;;;;;;24.95;15.18;;;;;;;4.61;79.61;100134.41;5086781;28;20402;-24
2021/03/20 22:45:35;;;;;;;27.55;17.00;;;;;;;4.54;79.55;100108.91;5105329;28;20433;-24
2021/03/20 22:48:02;;;;;;;24.73;14.10;;;;;;;4.72;78.99;100135.81;5104933;28;20024;-24
2021/03/20 22:50:29;;;;;;;25.13;15.48;;;;;;;4.88;78.71;100142.75;5105360;28;20039;-24
2021/03/20 22:52:54;;;;;;;25.17;14.82;;;;;;;4.75;78.58;100135.44;5086854;28;20123;-24
2021/03/20 22:55:20;;;;;;;24.13;14.02;;;;;;;4.64;78.57;100133.25;5103282;28;20126;-24
2021/03/20 22:57:45;;;;;;;26.33;16.02;;;;;;;4.67;78.76;100132.88;5104709;28;20056;-23
2021/03/20 23:00:37;;;;;;;27.60;15.85;;;;;;;4.70;79.08;100132.53;5104722;28;20383;-23
2021/03/20 23:03:19;;;;;;;31.00;17.10;;;;;;;4.51;79.06;100127.72;5120238;28;20059;-25
2021/03/20 23:05:48;;;;;;;34.38;20.50;;;;;;;4.29;80.15;100109.09;5106984;28;20195;-24
2021/03/20 23:08:42;;;;;;;31.50;17.13;;;;;;;4.48;80.13;100120.97;5124997;28;20092;-22
2021/03/20 23:11:17;;;;;;;49.45;23.40;;;;;;;4.57;79.82;100121.72;5119543;28;20119;-24
2021/03/20 23:13:43;;;;;;;38.15;19.52;;;;;;;4.70;79.38;100123.75;5093087;28;20465;-25
2021/03/20 23:16:09;;;;;;;47.72;23.75;;;;;;;4.61;79.54;100128.31;5111136;28;20526;-25
2021/03/20 23:18:35;;;;;;;45.45;24.00;;;;;;;4.82;78.77;100120.53;5092965;28;20027;-25
2021/03/20 23:21:01;;;;;;;32.70;18.10;;;;;;;4.62;79.05;100104.34;5110958;28;20023;-24
2021/03/20 23:23:26;;;;;;;33.22;18.23;;;;;;;4.44;79.01;100090.66;5110789;28;20125;-24
2021/03/20 23:25:52;;;;;;;35.28;18.58;;;;;;;4.54;79.16;100116.81;5110972;28;20037;-24
2021/03/20 23:28:21;;;;;;;35.30;18.48;;;;;;;4.78;78.76;100135.09;5111105;28;20028;-24
2021/03/20 23:30:46;;;;;;;21.02;12.25;;;;;;;4.58;78.96;100133.94;5110827;28;20028;-24
2021/03/20 23:33:12;;;;;;;21.02;12.35;;;;;;;4.69;78.38;100136.16;5110697;28;20050;-23
2021/03/20 23:35:38;;;;;;;20.52;12.00;;;;;;;4.56;79.01;100155.25;5110861;28;20032;-24
2021/03/20 23:38:04;;;;;;;20.52;11.80;;;;;;;4.37;80.12;100138.06;5110770;28;20034;-24
2021/03/20 23:40:29;;;;;;;20.23;12.00;;;;;;;4.64;79.23;100154.38;5110693;28;20112;-24
2021/03/20 23:42:55;;;;;;;24.80;13.90;;;;;;;4.52;79.69;100147.88;5110855;28;20115;-24
2021/03/20 23:45:21;;;;;;;22.42;12.82;;;;;;;4.72;78.88;100162.22;5110421;28;20028;-24
2021/03/20 23:47:47;;;;;;;20.95;12.65;;;;;;;4.57;79.39;100158.72;5092616;28;20513;-23
2021/03/20 23:50:13;;;;;;;22.83;12.77;;;;;;;4.35;80.59;100168.28;5110637;28;20030;-22
2021/03/20 23:52:39;;;;;;;22.75;12.20;;;;;;;4.32;80.80;100160.72;5110727;28;20603;-22
2021/03/20 23:55:06;;;;;;;28.05;14.05;;;;;;;4.57;79.60;100164.81;5111056;28;20035;-24
2021/03/20 23:57:31;;;;;;;22.65;12.93;;;;;;;4.43;80.14;100161.13;5110730;28;20031;-24
2021/03/20 23:59:57;;;;;;;24.67;13.68;;;;;;;4.72;79.36;100156.94;5110262;28;20484;-24
